Time;durP1;ratioP1;P1;durP2;ratioP2;P2;SDS_P1;SDS_P2;PMS_P1;PMS_P2;Temp;Humidity;BMP_temperature;BMP_pressure;BME280_temperature;BME280_humidity;BME280_pressure;Samples;Min_cycle;Max_cycle;Signal;HPM_P1;HPM_P2
2022/07/18 00:01:33;;;;;;;3.92;2.90;;;17.70;99.90;;;;;;5073892;28;20040;-56
2022/07/18 00:03:59;;;;;;;5.00;3.20;;;17.60;99.90;;;;;;5073799;28;20040;-55
2022/07/18 00:06:25;;;;;;;4.00;3.03;;;17.60;99.90;;;;;;5073934;28;20127;-56
2022/07/18 00:08:50;;;;;;;4.18;2.70;;;17.60;99.90;;;;;;5072785;28;20045;-56
2022/07/18 00:11:16;;;;;;;5.28;3.35;;;17.60;99.90;;;;;;5072601;28;20555;-56
2022/07/18 00:13:42;;;;;;;5.38;3.42;;;17.50;99.90;;;;;;5073921;28;20036;-57
2022/07/18 00:16:08;;;;;;;7.05;4.32;;;17.40;99.90;;;;;;5073613;28;20467;-56
2022/07/18 00:18:33;;;;;;;4.28;3.40;;;17.40;99.90;;;;;;5072362;28;20048;-56
2022/07/18 00:20:59;;;;;;;3.33;3.03;;;17.40;99.90;;;;;;5073982;28;20036;-56
2022/07/18 00:23:24;;;;;;;3.45;2.92;;;17.40;99.90;;;;;;5073597;28;20471;-56
2022/07/18 00:25:50;;;;;;;4.65;2.60;;;17.30;99.90;;;;;;5073415;28;20052;-57
2022/07/18 00:28:16;;;;;;;5.35;3.05;;;17.30;99.90;;;;;;5073352;28;20486;-63
2022/07/18 00:30:42;;;;;;;4.78;3.20;;;17.40;99.90;;;;;;5073631;28;20116;-63
2022/07/18 00:33:07;;;;;;;4.93;3.17;;;17.30;99.90;;;;;;5073740;28;20037;-63
2022/07/18 00:35:33;;;;;;;4.15;3.47;;;17.30;99.90;;;;;;5073622;28;20051;-64
2022/07/18 00:38:01;;;;;;;5.85;3.40;;;17.20;99.90;;;;;;5073726;28;20087;-64
2022/07/18 00:40:26;;;;;;;6.00;4.43;;;17.20;99.90;;;;;;5073650;28;20094;-63
2022/07/18 00:42:52;;;;;;;5.20;3.28;;;17.20;99.90;;;;;;5073653;28;20036;-63
2022/07/18 00:45:18;;;;;;;5.25;3.58;;;17.10;99.90;;;;;;5073357;28;20037;-62
2022/07/18 00:47:43;;;;;;;4.43;3.28;;;17.10;99.90;;;;;;5073525;28;20047;-63
2022/07/18 00:50:10;;;;;;;5.63;3.50;;;17.00;99.90;;;;;;5073631;28;20404;-63
2022/07/18 00:52:36;;;;;;;6.07;3.60;;;17.00;99.90;;;;;;5073553;28;20044;-62
2022/07/18 00:55:04;;;;;;;4.75;3.20;;;17.00;99.90;;;;;;5073448;28;20040;-63
2022/07/18 00:57:30;;;;;;;4.50;3.33;;;16.90;99.90;;;;;;5073545;28;20111;-63
2022/07/18 01:02:41;;;;;;;4.30;3.42;;;16.90;99.90;;;;;;5072315;28;20391;-63
2022/07/18 01:05:08;;;;;;;5.22;3.40;;;16.90;99.90;;;;;;5073440;28;20047;-63
2022/07/18 01:07:35;;;;;;;3.95;3.33;;;16.90;99.90;;;;;;5073312;28;20033;-62
2022/07/18 01:10:02;;;;;;;5.85;3.72;;;16.90;99.90;;;;;;5073375;28;20045;-63
2022/07/18 01:12:28;;;;;;;5.20;3.50;;;16.90;99.90;;;;;;5073208;28;20103;-63
2022/07/18 01:14:55;;;;;;;4.68;3.75;;;16.80;99.90;;;;;;5073305;28;20033;-64
2022/07/18 01:17:21;;;;;;;4.75;3.25;;;16.80;99.90;;;;;;5073336;28;20048;-64
2022/07/18 01:19:47;;;;;;;8.27;3.92;;;16.80;99.90;;;;;;5073463;28;20045;-63
2022/07/18 01:22:16;;;;;;;4.93;4.00;;;16.90;99.90;;;;;;5073244;28;20036;-64
2022/07/18 01:24:42;;;;;;;4.47;3.08;;;16.80;99.90;;;;;;5073413;28;20054;-63
2022/07/18 01:27:08;;;;;;;5.28;3.80;;;16.80;99.90;;;;;;5072926;28;20119;-62
2022/07/18 01:29:34;;;;;;;5.50;4.00;;;16.80;99.90;;;;;;5073151;28;20045;-63
2022/07/18 01:32:09;;;;;;;6.00;3.72;;;16.80;99.90;;;;;;5073192;28;20040;-63
2022/07/18 01:34:35;;;;;;;5.97;4.07;;;16.80;99.90;;;;;;5073084;28;20120;-63
2022/07/18 01:37:00;;;;;;;6.03;4.00;;;16.80;99.90;;;;;;5075654;28;20127;-63
2022/07/18 01:39:26;;;;;;;5.95;4.40;;;16.80;99.90;;;;;;5075427;28;20044;-63
2022/07/18 01:41:59;;;;;;;4.65;4.03;;;16.70;99.90;;;;;;5076637;28;20048;-63
2022/07/18 01:44:26;;;;;;;5.85;4.32;;;16.70;99.90;;;;;;5076632;28;20042;-63
2022/07/18 01:46:53;;;;;;;5.28;4.57;;;16.70;99.90;;;;;;5076041;28;20101;-63
2022/07/18 01:49:19;;;;;;;7.90;4.72;;;16.70;99.90;;;;;;5076525;28;20033;-63
2022/07/18 01:51:49;;;;;;;6.05;4.78;;;16.70;99.90;;;;;;5075491;28;20050;-62
2022/07/18 01:54:16;;;;;;;6.78;4.20;;;16.80;99.90;;;;;;5076416;28;20425;-63
2022/07/18 01:56:42;;;;;;;6.35;5.38;;;16.70;99.90;;;;;;5076349;28;20044;-63
2022/07/18 01:59:07;;;;;;;7.03;4.95;;;16.70;99.90;;;;;;5076332;28;20098;-63
2022/07/18 02:01:33;;;;;;;10.10;5.47;;;16.80;99.90;;;;;;5076385;28;20391;-62
2022/07/18 02:03:59;;;;;;;6.93;5.45;;;16.70;99.90;;;;;;5076208;28;20045;-63
2022/07/18 02:06:24;;;;;;;7.78;5.13;;;16.70;99.90;;;;;;5076186;28;20040;-63
2022/07/18 02:08:50;;;;;;;8.23;5.13;;;16.60;99.90;;;;;;5075804;28;20044;-62
2022/07/18 02:11:16;;;;;;;6.80;4.60;;;16.60;99.90;;;;;;5076126;28;20028;-63
2022/07/18 02:13:41;;;;;;;7.78;5.00;;;16.70;99.90;;;;;;5076429;28;20081;-63
2022/07/18 02:16:07;;;;;;;6.03;4.75;;;16.60;99.90;;;;;;5076268;28;20037;-63
2022/07/18 02:18:33;;;;;;;7.97;5.50;;;16.60;99.90;;;;;;5075724;28;20041;-62
2022/07/18 02:21:02;;;;;;;7.25;5.18;;;16.50;99.90;;;;;;5076127;28;20044;-62
2022/07/18 02:23:28;;;;;;;7.65;5.35;;;16.50;99.90;;;;;;5075562;28;20041;-63
2022/07/18 02:25:54;;;;;;;8.50;5.47;;;16.40;99.90;;;;;;5075701;28;20048;-63
2022/07/18 02:28:20;;;;;;;8.00;5.50;;;16.30;99.90;;;;;;5075591;28;20678;-62
2022/07/18 02:30:47;;;;;;;10.68;6.30;;;16.40;99.90;;;;;;5075800;28;20083;-62
2022/07/18 02:33:14;;;;;;;7.72;5.43;;;16.40;99.90;;;;;;5075716;28;20063;-62
2022/07/18 02:35:39;;;;;;;7.55;5.30;;;16.40;99.90;;;;;;5075315;28;20475;-62
2022/07/18 02:38:05;;;;;;;8.43;5.40;;;16.40;99.90;;;;;;5075589;28;20052;-62
2022/07/18 02:40:31;;;;;;;7.10;5.85;;;16.50;99.90;;;;;;5075609;28;20547;-62
2022/07/18 02:42:56;;;;;;;10.35;5.30;;;16.50;99.90;;;;;;5075328;28;20058;-63
2022/07/18 02:45:22;;;;;;;13.18;5.95;;;16.50;99.90;;;;;;5075511;28;20083;-62
2022/07/18 02:47:47;;;;;;;9.57;5.78;;;16.50;99.90;;;;;;5073807;28;20047;-63
2022/07/18 02:50:13;;;;;;;7.20;4.95;;;16.50;99.90;;;;;;5075256;28;20040;-63
2022/07/18 02:52:40;;;;;;;10.95;6.00;;;16.50;99.90;;;;;;5075345;28;20040;-63
2022/07/18 02:55:07;;;;;;;7.30;4.85;;;16.50;99.90;;;;;;5075093;28;20036;-63
2022/07/18 02:57:33;;;;;;;8.10;5.30;;;16.50;99.90;;;;;;5075214;28;20044;-63
2022/07/18 02:59:59;;;;;;;7.47;5.55;;;16.50;99.90;;;;;;5074948;28;20047;-63
2022/07/18 03:02:25;;;;;;;6.93;5.20;;;16.50;99.90;;;;;;5075270;28;20082;-63
2022/07/18 03:04:50;;;;;;;9.75;5.70;;;16.50;99.90;;;;;;5075052;28;20074;-63
2022/07/18 03:07:16;;;;;;;15.48;5.45;;;16.50;99.90;;;;;;5074843;28;20032;-63
2022/07/18 03:09:42;;;;;;;7.13;5.13;;;16.50;99.90;;;;;;5074772;28;20364;-63
2022/07/18 03:12:07;;;;;;;8.48;5.97;;;16.50;99.90;;;;;;5074960;28;20032;-63
2022/07/18 03:14:33;;;;;;;9.35;5.72;;;16.50;99.90;;;;;;5074787;28;20154;-64
2022/07/18 03:17:00;;;;;;;10.73;5.25;;;16.50;99.90;;;;;;5074614;28;20090;-63
2022/07/18 03:19:25;;;;;;;8.13;5.25;;;16.50;99.90;;;;;;5074703;28;20055;-63
2022/07/18 03:21:51;;;;;;;12.02;6.18;;;16.60;99.90;;;;;;5074770;28;20394;-63
2022/07/18 03:24:17;;;;;;;8.77;5.35;;;16.50;99.90;;;;;;5074399;28;20056;-62
2022/07/18 03:26:43;;;;;;;7.45;5.00;;;16.50;99.90;;;;;;5074429;28;20421;-63
2022/07/18 03:29:09;;;;;;;8.93;5.43;;;16.50;99.90;;;;;;5074637;28;20479;-63
2022/07/18 03:31:35;;;;;;;8.50;5.15;;;16.50;99.90;;;;;;5074597;28;20055;-62
2022/07/18 03:34:01;;;;;;;8.15;5.55;;;16.50;99.90;;;;;;5074396;28;20111;-62
2022/07/18 03:36:27;;;;;;;8.60;5.60;;;16.50;99.90;;;;;;5074506;28;20044;-62
2022/07/18 03:38:52;;;;;;;8.48;4.93;;;16.50;99.90;;;;;;5074404;28;20047;-63
2022/07/18 03:41:18;;;;;;;7.47;5.18;;;16.50;99.90;;;;;;5073362;28;20071;-63
2022/07/18 03:43:44;;;;;;;7.85;5.35;;;16.50;99.90;;;;;;5074380;28;20475;-62
2022/07/18 03:46:09;;;;;;;7.03;4.95;;;16.50;99.90;;;;;;5073997;28;20037;-63
2022/07/18 03:48:35;;;;;;;8.90;5.22;;;16.40;99.90;;;;;;5072917;28;20033;-63
2022/07/18 03:51:02;;;;;;;7.63;4.85;;;16.50;99.90;;;;;;5074180;28;20432;-63
2022/07/18 03:53:28;;;;;;;8.27;5.45;;;16.50;99.90;;;;;;5073964;28;20487;-63
2022/07/18 03:55:53;;;;;;;10.00;5.13;;;16.50;99.90;;;;;;5074000;28;20079;-63
2022/07/18 03:58:19;;;;;;;12.05;6.05;;;16.50;99.90;;;;;;5073420;28;20043;-62
2022/07/18 04:00:45;;;;;;;8.25;5.28;;;16.40;99.90;;;;;;5074104;28;20033;-62
2022/07/18 04:03:10;;;;;;;10.07;5.53;;;16.40;99.90;;;;;;5074037;28;20105;-63
2022/07/18 04:05:36;;;;;;;8.13;5.22;;;16.40;99.90;;;;;;5072535;28;20391;-62
2022/07/18 04:08:02;;;;;;;9.77;5.00;;;16.30;99.90;;;;;;5073607;28;20124;-63
2022/07/18 04:10:28;;;;;;;7.57;5.75;;;16.30;99.90;;;;;;5074019;28;20029;-63
2022/07/18 04:12:55;;;;;;;7.32;5.00;;;16.40;99.90;;;;;;5072834;28;20471;-63
2022/07/18 04:15:22;;;;;;;8.85;4.70;;;16.40;99.90;;;;;;5073888;28;20036;-63
2022/07/18 04:17:48;;;;;;;12.40;5.60;;;16.40;99.90;;;;;;5073906;28;20040;-64
2022/07/18 04:20:15;;;;;;;8.10;5.10;;;16.40;99.90;;;;;;5073941;28;20486;-63
2022/07/18 04:22:51;;;;;;;7.15;4.97;;;16.40;99.90;;;;;;5072499;28;20036;-64
2022/07/18 04:25:19;;;;;;;7.82;4.85;;;16.40;99.90;;;;;;5072819;28;20114;-64
2022/07/18 04:27:45;;;;;;;11.27;4.97;;;16.50;99.90;;;;;;5073621;28;20060;-64
2022/07/18 04:30:12;;;;;;;7.70;4.88;;;16.50;99.90;;;;;;5073780;28;20382;-64
2022/07/18 04:32:38;;;;;;;7.63;5.22;;;16.50;99.90;;;;;;5073572;28;20363;-63
2022/07/18 04:35:06;;;;;;;6.30;4.22;;;16.60;99.90;;;;;;5073757;28;20036;-62
2022/07/18 04:37:32;;;;;;;9.68;5.55;;;16.60;99.90;;;;;;5073751;28;20055;-64
2022/07/18 04:39:59;;;;;;;6.70;4.85;;;16.70;99.90;;;;;;5073459;28;20482;-64
2022/07/18 04:42:25;;;;;;;7.93;4.80;;;16.70;99.90;;;;;;5072376;28;20037;-63
2022/07/18 04:44:51;;;;;;;6.13;4.13;;;16.80;99.90;;;;;;5073590;28;20032;-63
2022/07/18 04:47:17;;;;;;;5.75;4.43;;;16.90;99.90;;;;;;5072436;28;20040;-62
2022/07/18 04:49:42;;;;;;;6.93;4.32;;;17.00;99.90;;;;;;5073526;28;20036;-62
2022/07/18 04:52:08;;;;;;;7.88;4.65;;;17.00;99.90;;;;;;5073717;28;20067;-62
2022/07/18 04:54:34;;;;;;;8.93;3.85;;;17.00;99.90;;;;;;5073491;28;20036;-63
2022/07/18 04:57:00;;;;;;;5.88;3.30;;;17.10;99.90;;;;;;5073529;28;20173;-64
2022/07/18 04:59:25;;;;;;;6.13;3.17;;;17.20;99.90;;;;;;5073427;28;20040;-64
2022/07/18 05:01:51;;;;;;;7.68;3.85;;;17.30;99.90;;;;;;5073319;28;20094;-63
2022/07/18 05:04:17;;;;;;;4.97;3.90;;;17.30;99.90;;;;;;5073433;28;20048;-65
2022/07/18 05:06:42;;;;;;;8.93;3.92;;;17.40;99.90;;;;;;5073379;28;20040;-63
2022/07/18 05:09:08;;;;;;;5.10;3.70;;;17.40;99.90;;;;;;5073432;28;20486;-64
2022/07/18 05:11:34;;;;;;;5.93;3.50;;;17.50;99.90;;;;;;5075116;28;20116;-63
2022/07/18 05:13:59;;;;;;;8.82;3.55;;;17.50;99.90;;;;;;5077154;28;20625;-63
2022/07/18 05:16:25;;;;;;;7.38;4.05;;;17.50;99.90;;;;;;5077176;28;20041;-63
2022/07/18 05:18:51;;;;;;;5.38;3.60;;;17.50;99.90;;;;;;5075507;28;20048;-64
2022/07/18 05:21:16;;;;;;;7.07;3.53;;;17.50;99.90;;;;;;5077457;28;20433;-63
2022/07/18 05:23:45;;;;;;;5.53;3.70;;;17.60;99.90;;;;;;5059637;28;20110;-63
2022/07/18 05:26:11;;;;;;;8.68;3.95;;;17.70;99.90;;;;;;5076738;28;20506;-63
2022/07/18 05:28:37;;;;;;;7.43;4.38;;;17.70;99.90;;;;;;5075559;28;20127;-63
2022/07/18 05:31:03;;;;;;;5.95;4.00;;;17.60;99.90;;;;;;5076813;28;20075;-64
2022/07/18 05:33:29;;;;;;;6.22;4.45;;;17.70;99.90;;;;;;5076817;28;20036;-64
2022/07/18 05:35:54;;;;;;;8.23;4.10;;;17.70;99.90;;;;;;5076782;28;20044;-64
2022/07/18 05:38:20;;;;;;;7.50;4.00;;;17.70;99.90;;;;;;5076749;28;20446;-64
2022/07/18 05:40:46;;;;;;;6.55;3.60;;;17.70;99.90;;;;;;5076487;28;20097;-64
2022/07/18 05:43:11;;;;;;;6.07;3.97;;;17.70;99.90;;;;;;5075395;28;20036;-64
2022/07/18 05:45:37;;;;;;;7.28;3.55;;;17.70;99.90;;;;;;5075618;28;20036;-63
2022/07/18 05:48:03;;;;;;;5.95;4.32;;;17.70;99.90;;;;;;5073542;28;20086;-64
2022/07/18 05:50:29;;;;;;;11.18;4.18;;;17.70;99.90;;;;;;5075544;28;20036;-63
2022/07/18 05:52:54;;;;;;;7.32;3.80;;;17.70;99.90;;;;;;5076478;28;20506;-63
2022/07/18 05:55:20;;;;;;;6.30;3.20;;;17.80;99.90;;;;;;5076454;28;20036;-63
2022/07/18 05:57:46;;;;;;;7.47;3.30;;;17.80;99.90;;;;;;5076339;28;20044;-64
2022/07/18 06:00:13;;;;;;;5.70;3.45;;;17.90;99.90;;;;;;5076292;28;20111;-63
2022/07/18 06:02:38;;;;;;;9.15;3.30;;;17.90;99.90;;;;;;5076319;28;20041;-64
2022/07/18 06:05:06;;;;;;;7.57;3.30;;;18.00;99.90;;;;;;5076298;28;20041;-63
2022/07/18 06:07:31;;;;;;;9.18;3.92;;;18.10;99.90;;;;;;5076319;28;20110;-64
2022/07/18 06:09:57;;;;;;;7.00;3.55;;;18.20;99.90;;;;;;5076067;28;20122;-64
2022/07/18 06:12:23;;;;;;;11.15;3.85;;;18.30;99.90;;;;;;5076500;28;20427;-64
2022/07/18 06:14:49;;;;;;;5.70;3.13;;;18.40;99.90;;;;;;5076158;28;20032;-64
2022/07/18 06:17:14;;;;;;;8.50;3.58;;;18.50;99.90;;;;;;5076017;28;20040;-65
2022/07/18 06:19:41;;;;;;;5.13;3.10;;;18.50;99.90;;;;;;5075960;28;20119;-64
2022/07/18 06:22:08;;;;;;;4.85;3.30;;;18.60;99.90;;;;;;5075562;28;20059;-63
2022/07/18 06:24:33;;;;;;;8.02;3.50;;;18.80;99.90;;;;;;5075656;28;20509;-63
2022/07/18 06:26:59;;;;;;;12.50;3.55;;;18.90;99.90;;;;;;5075505;28;20041;-64
2022/07/18 06:29:25;;;;;;;9.55;3.33;;;18.90;99.90;;;;;;5075805;28;20033;-64
2022/07/18 06:31:50;;;;;;;8.50;3.08;;;19.00;99.90;;;;;;5075600;28;20471;-64
2022/07/18 06:34:16;;;;;;;9.13;2.95;;;19.20;99.90;;;;;;5075747;28;20068;-64
2022/07/18 06:36:42;;;;;;;6.85;3.15;;;19.40;99.90;;;;;;5075687;28;20071;-63
2022/07/18 06:39:11;;;;;;;9.20;3.63;;;19.60;99.90;;;;;;5075516;28;20394;-64
2022/07/18 06:41:39;;;;;;;7.78;3.33;;;19.60;99.90;;;;;;5075522;28;20066;-64
2022/07/18 06:44:05;;;;;;;5.95;2.72;;;19.60;99.90;;;;;;5075525;28;20075;-63
2022/07/18 06:46:31;;;;;;;4.80;2.60;;;19.70;99.90;;;;;;5073967;28;20045;-63
2022/07/18 06:48:57;;;;;;;7.45;3.30;;;19.80;99.90;;;;;;5074928;28;20047;-63
2022/07/18 06:51:22;;;;;;;7.85;2.97;;;19.90;99.90;;;;;;5075425;28;20433;-64
2022/07/18 06:53:48;;;;;;;5.93;2.97;;;19.90;99.90;;;;;;5075212;28;20048;-64
2022/07/18 06:56:14;;;;;;;5.10;2.67;;;20.20;99.90;;;;;;5074092;28;20036;-64
2022/07/18 06:58:39;;;;;;;3.92;2.47;;;20.40;99.90;;;;;;5061613;28;20045;-64
2022/07/18 07:01:06;;;;;;;4.15;2.58;;;20.60;99.90;;;;;;5055628;28;20041;-64
2022/07/18 07:03:32;;;;;;;8.10;2.83;;;20.90;99.90;;;;;;5055113;28;20064;-64
2022/07/18 07:05:58;;;;;;;4.13;2.83;;;21.10;99.90;;;;;;5070048;28;20091;-63
2022/07/18 07:08:23;;;;;;;4.90;2.35;;;21.10;99.90;;;;;;5074880;28;20055;-63
2022/07/18 07:10:49;;;;;;;6.10;3.05;;;21.00;99.90;;;;;;5074951;28;20036;-64
2022/07/18 07:13:15;;;;;;;5.13;2.70;;;21.20;99.90;;;;;;5074941;28;20040;-63
2022/07/18 07:15:42;;;;;;;7.05;2.83;;;21.30;99.90;;;;;;5074871;28;20177;-64
2022/07/18 07:18:08;;;;;;;6.10;2.40;;;21.40;99.90;;;;;;5073476;28;20048;-64
2022/07/18 07:20:34;;;;;;;4.47;2.50;;;21.30;99.90;;;;;;5074865;28;20041;-64
2022/07/18 07:23:04;;;;;;;3.63;2.33;;;21.30;99.90;;;;;;5074738;28;20044;-63
2022/07/18 07:25:30;;;;;;;6.28;3.00;;;21.40;99.90;;;;;;5074379;28;20105;-63
2022/07/18 07:27:56;;;;;;;2.85;1.85;;;21.40;99.90;;;;;;5074619;28;20083;-63
2022/07/18 07:30:22;;;;;;;5.15;2.30;;;21.50;99.90;;;;;;5074666;28;20102;-63
2022/07/18 07:32:50;;;;;;;5.43;2.38;;;21.80;99.90;;;;;;5072960;28;20079;-63
2022/07/18 07:35:17;;;;;;;3.97;2.30;;;22.10;99.90;;;;;;5073951;28;20121;-64
2022/07/18 07:37:45;;;;;;;4.95;2.10;;;22.20;99.90;;;;;;5074284;28;20037;-63
2022/07/18 07:40:11;;;;;;;8.18;2.22;;;22.40;99.90;;;;;;5074123;28;20128;-60
2022/07/18 07:42:37;;;;;;;2.50;1.80;;;22.60;99.90;;;;;;5072882;28;20043;-61
2022/07/18 07:45:05;;;;;;;2.42;1.70;;;23.40;99.90;;;;;;5066525;28;20033;-61
2022/07/18 07:47:31;;;;;;;4.57;2.05;;;23.90;99.90;;;;;;5069365;28;20049;-61
2022/07/18 07:49:57;;;;;;;3.75;1.70;;;23.80;99.90;;;;;;5060229;28;20029;-61
2022/07/18 07:52:23;;;;;;;6.72;2.33;;;23.70;99.90;;;;;;5072060;28;20116;-60
2022/07/18 07:54:50;;;;;;;8.35;1.90;;;23.80;99.90;;;;;;5071741;28;20036;-62
2022/07/18 07:57:16;;;;;;;7.45;1.92;;;23.90;99.90;;;;;;5064997;28;20040;-61
2022/07/18 07:59:41;;;;;;;6.60;2.10;;;24.00;99.90;;;;;;5071187;28;20044;-60
2022/07/18 08:02:07;;;;;;;4.65;2.00;;;24.30;99.90;;;;;;5072782;28;20434;-60
2022/07/18 08:04:33;;;;;;;5.72;1.75;;;24.70;99.90;;;;;;5073405;28;20441;-60
2022/07/18 08:06:58;;;;;;;5.85;1.90;;;25.00;99.90;;;;;;5072739;28;20467;-60
2022/07/18 08:09:24;;;;;;;9.35;2.72;;;25.00;99.90;;;;;;5074097;28;20037;-60
2022/07/18 08:11:50;;;;;;;3.95;2.10;;;25.20;99.90;;;;;;5074163;28;20037;-60
2022/07/18 08:14:15;;;;;;;2.83;1.90;;;25.00;99.90;;;;;;5074257;28;20044;-60
2022/07/18 08:16:41;;;;;;;4.93;2.00;;;24.90;99.90;;;;;;5074312;28;20082;-60
2022/07/18 08:19:06;;;;;;;4.38;2.00;;;24.90;99.90;;;;;;5073814;28;20390;-60
2022/07/18 08:21:32;;;;;;;4.53;1.75;;;25.40;99.90;;;;;;5074348;28;20040;-61
2022/07/18 08:23:58;;;;;;;4.15;1.83;;;25.70;99.90;;;;;;5073691;28;20032;-60
2022/07/18 08:26:23;;;;;;;6.50;1.80;;;26.20;99.90;;;;;;5073780;28;20092;-61
2022/07/18 08:28:49;;;;;;;7.85;2.05;;;26.20;99.90;;;;;;5074001;28;20044;-60
2022/07/18 08:31:16;;;;;;;8.43;1.80;;;26.50;99.90;;;;;;5072820;28;20032;-61
2022/07/18 08:33:42;;;;;;;7.85;2.08;;;27.20;99.90;;;;;;5074222;28;20037;-60
2022/07/18 08:36:08;;;;;;;4.97;1.50;;;27.20;99.40;;;;;;5074174;28;20067;-60
2022/07/18 08:38:33;;;;;;;8.10;1.70;;;27.40;99.50;;;;;;5073779;28;20076;-62
2022/07/18 08:41:01;;;;;;;5.30;2.15;;;27.60;99.40;;;;;;5072401;28;20426;-60
2022/07/18 08:43:26;;;;;;;3.53;1.40;;;27.60;99.50;;;;;;5073859;28;20413;-60
2022/07/18 08:46:01;;;;;;;2.65;1.60;;;27.50;99.60;;;;;;5076685;28;20041;-61
2022/07/18 08:48:27;;;;;;;6.28;2.05;;;27.40;98.10;;;;;;5077612;28;20040;-61
2022/07/18 08:50:52;;;;;;;6.82;1.77;;;27.40;99.50;;;;;;5077417;28;20040;-62
2022/07/18 08:53:19;;;;;;;8.50;1.83;;;27.30;99.80;;;;;;5077826;28;20083;-62
2022/07/18 08:55:45;;;;;;;4.80;1.77;;;27.20;99.60;;;;;;5077813;28;20107;-62
2022/07/18 08:58:12;;;;;;;5.18;1.75;;;26.90;98.70;;;;;;5077698;28;20497;-62
2022/07/18 09:00:38;;;;;;;5.18;1.75;;;26.80;99.10;;;;;;5077865;28;20036;-62
2022/07/18 09:03:04;;;;;;;2.55;1.33;;;26.60;98.80;;;;;;5077913;28;20597;-62
2022/07/18 09:05:31;;;;;;;5.63;1.42;;;26.40;99.30;;;;;;5077881;28;20071;-62
2022/07/18 09:08:19;;;;;;;3.22;1.58;;;26.40;98.80;;;;;;5077488;28;20117;-61
2022/07/18 09:10:52;;;;;;;3.60;1.48;;;26.30;98.30;;;;;;5077223;28;20032;-62
2022/07/18 09:13:19;;;;;;;5.45;1.60;;;26.40;98.50;;;;;;5075948;28;20037;-62
2022/07/18 09:16:09;;;;;;;4.03;1.70;;;26.60;99.10;;;;;;5077645;28;20039;-62
2022/07/18 09:18:37;;;;;;;12.77;1.52;;;26.80;99.90;;;;;;5076980;28;20464;-62
2022/07/18 09:21:08;;;;;;;3.55;2.00;;;27.00;99.70;;;;;;5077409;28;20036;-61
2022/07/18 09:23:37;;;;;;;3.10;1.35;;;27.20;99.90;;;;;;5077389;28;20116;-62
2022/07/18 09:26:04;;;;;;;6.05;1.60;;;27.20;99.90;;;;;;5076625;28;20040;-62
2022/07/18 09:28:49;;;;;;;7.63;1.60;;;27.60;99.40;;;;;;5076912;28;20040;-62
2022/07/18 09:31:19;;;;;;;3.40;1.65;;;27.70;97.00;;;;;;5077160;28;20036;-62
2022/07/18 09:34:02;;;;;;;4.57;1.92;;;27.90;97.40;;;;;;5075320;28;20040;-61
2022/07/18 09:36:33;;;;;;;8.27;1.52;;;28.20;96.70;;;;;;5077183;28;20040;-62
2022/07/18 09:38:59;;;;;;;4.28;1.70;;;28.30;96.90;;;;;;5076858;28;20044;-62
2022/07/18 09:41:26;;;;;;;3.38;1.50;;;28.70;97.30;;;;;;5077144;28;20037;-62
2022/07/18 09:43:52;;;;;;;7.30;2.13;;;28.80;97.00;;;;;;5076966;28;20068;-62
2022/07/18 09:46:18;;;;;;;4.80;1.63;;;28.70;96.70;;;;;;5076851;28;20306;-62
2022/07/18 09:48:44;;;;;;;8.27;1.63;;;28.70;96.40;;;;;;5077037;28;20424;-62
2022/07/18 09:51:10;;;;;;;4.38;1.98;;;28.70;96.30;;;;;;5077036;28;20485;-61
2022/07/18 09:53:37;;;;;;;4.50;1.42;;;28.60;96.00;;;;;;5076717;28;20036;-61
2022/07/18 09:56:21;;;;;;;4.85;1.65;;;28.80;95.80;;;;;;5074964;28;20047;-61
2022/07/18 09:58:52;;;;;;;5.25;1.70;;;29.00;96.10;;;;;;5076812;28;20040;-60
2022/07/18 10:01:18;;;;;;;5.30;1.65;;;29.30;95.60;;;;;;5076469;28;20379;-61
2022/07/18 10:03:44;;;;;;;7.18;1.80;;;29.80;96.60;;;;;;5074302;28;20044;-61
2022/07/18 10:06:10;;;;;;;3.30;1.77;;;29.90;95.10;;;;;;5073300;28;20394;-61
2022/07/18 10:08:37;;;;;;;5.55;1.45;;;30.00;95.80;;;;;;5074654;28;20390;-61
2022/07/18 10:11:05;;;;;;;5.43;1.77;;;30.30;95.20;;;;;;5076050;28;20062;-61
2022/07/18 10:13:32;;;;;;;5.80;1.67;;;30.50;95.40;;;;;;5076075;28;20411;-61
2022/07/18 10:15:58;;;;;;;5.93;1.95;;;30.60;95.30;;;;;;5076081;28;20037;-61
2022/07/18 10:18:30;;;;;;;4.22;1.92;;;30.80;95.00;;;;;;5076053;28;20043;-62
2022/07/18 10:21:05;;;;;;;3.88;1.45;;;30.80;94.20;;;;;;5074892;28;20123;-61
2022/07/18 10:23:51;;;;;;;6.70;1.73;;;31.10;94.30;;;;;;5075880;28;20379;-61
2022/07/18 10:26:21;;;;;;;6.65;2.00;;;31.10;94.90;;;;;;5074423;28;20052;-62
2022/07/18 10:28:56;;;;;;;5.82;2.17;;;31.30;93.70;;;;;;5075566;28;20044;-60
2022/07/18 10:31:29;;;;;;;6.35;2.03;;;31.60;93.70;;;;;;5074703;28;20422;-61
2022/07/18 10:34:15;;;;;;;7.00;2.72;;;31.40;93.90;;;;;;5075735;28;20070;-61
2022/07/18 10:37:06;;;;;;;6.90;2.50;;;31.80;92.40;;;;;;5075367;28;20502;-62
2022/07/18 10:39:46;;;;;;;3.15;2.08;;;32.10;92.70;;;;;;5075355;28;20486;-62
2022/07/18 10:42:12;;;;;;;7.07;1.88;;;32.50;93.80;;;;;;5075679;28;20041;-63
2022/07/18 10:44:41;;;;;;;5.25;2.30;;;32.40;92.40;;;;;;5075350;28;20044;-62
2022/07/18 10:47:17;;;;;;;5.45;2.22;;;32.60;91.50;;;;;;5075498;28;20047;-62
2022/07/18 10:49:57;;;;;;;7.88;2.45;;;33.10;90.70;;;;;;5075467;28;20036;-62
2022/07/18 10:52:26;;;;;;;5.53;2.53;;;33.40;90.70;;;;;;5075411;28;20070;-62
2022/07/18 10:55:08;;;;;;;4.75;2.42;;;33.50;91.00;;;;;;5074200;28;20049;-62
2022/07/18 10:57:41;;;;;;;4.07;2.25;;;33.60;89.20;;;;;;5073968;28;20044;-62
2022/07/18 11:00:08;;;;;;;3.10;2.13;;;33.80;87.80;;;;;;5075181;28;20048;-62
2022/07/18 11:02:48;;;;;;;4.73;2.70;;;33.80;89.90;;;;;;5075224;28;20041;-62
2022/07/18 11:05:22;;;;;;;6.75;2.60;;;34.20;89.30;;;;;;5075076;28;20072;-62
2022/07/18 11:07:57;;;;;;;3.53;2.90;;;35.10;89.20;;;;;;5074968;28;20120;-61
2022/07/18 11:10:41;;;;;;;10.13;2.55;;;35.20;86.40;;;;;;5074986;28;20051;-61
2022/07/18 11:13:28;;;;;;;5.47;2.60;;;35.30;85.20;;;;;;5074922;28;20124;-61
2022/07/18 11:16:15;;;;;;;8.68;2.55;;;35.20;86.40;;;;;;5074911;28;20036;-62
2022/07/18 11:18:44;;;;;;;4.32;2.55;;;35.40;86.00;;;;;;5074759;28;20040;-62
2022/07/18 11:21:15;;;;;;;5.90;2.38;;;35.40;84.30;;;;;;5074977;28;20150;-62
2022/07/18 11:23:46;;;;;;;5.25;3.00;;;35.60;83.30;;;;;;5074813;28;20048;-62
2022/07/18 11:26:20;;;;;;;5.10;2.97;;;35.40;81.90;;;;;;5074552;28;20609;-63
2022/07/18 11:28:48;;;;;;;5.47;2.90;;;34.80;81.90;;;;;;5074669;28;20036;-63
2022/07/18 11:31:15;;;;;;;5.35;2.78;;;35.10;82.00;;;;;;5074555;28;20041;-62
2022/07/18 11:33:45;;;;;;;4.18;2.65;;;35.30;82.90;;;;;;5074242;28;20402;-61
2022/07/18 11:36:14;;;;;;;5.10;2.83;;;35.80;82.70;;;;;;5074552;28;20036;-62
2022/07/18 11:38:48;;;;;;;4.45;2.92;;;35.90;81.60;;;;;;5074417;28;20048;-63
2022/07/18 11:41:15;;;;;;;4.80;2.88;;;35.90;79.50;;;;;;5074493;28;20052;-63
2022/07/18 11:43:43;;;;;;;4.90;2.78;;;35.80;81.40;;;;;;5074346;28;20040;-62
2022/07/18 11:46:13;;;;;;;4.93;2.92;;;35.80;81.50;;;;;;5074285;28;20041;-62
2022/07/18 11:48:40;;;;;;;5.32;2.83;;;36.00;79.90;;;;;;5074305;28;20043;-62
2022/07/18 11:51:10;;;;;;;4.53;2.95;;;36.50;82.60;;;;;;5074183;28;20475;-62
2022/07/18 11:53:35;;;;;;;5.78;3.00;;;36.20;80.40;;;;;;5072927;28;20044;-62
2022/07/18 11:56:05;;;;;;;3.83;2.92;;;36.30;80.30;;;;;;5073976;28;20082;-61
2022/07/18 11:58:36;;;;;;;5.72;3.25;;;36.80;82.60;;;;;;5074627;28;20124;-62
2022/07/18 12:01:03;;;;;;;5.43;3.13;;;37.20;79.70;;;;;;5074164;28;20043;-62
2022/07/18 12:03:29;;;;;;;4.85;3.05;;;37.90;80.30;;;;;;5072997;28;20045;-62
2022/07/18 12:05:55;;;;;;;10.05;3.63;;;37.80;78.60;;;;;;5074111;28;20471;-61
2022/07/18 12:08:32;;;;;;;10.55;4.07;;;38.40;78.90;;;;;;5073870;28;20044;-62
2022/07/18 12:11:08;;;;;;;3.95;3.33;;;38.10;75.30;;;;;;5072835;28;20078;-62
2022/07/18 12:13:52;;;;;;;4.07;3.30;;;38.00;75.80;;;;;;5074001;28;20047;-62
2022/07/18 12:16:30;;;;;;;3.20;2.75;;;38.00;75.80;;;;;;5074021;28;20040;-62
2022/07/18 12:19:13;;;;;;;3.97;3.13;;;38.10;76.20;;;;;;5073821;28;20040;-62
2022/07/18 12:21:43;;;;;;;4.25;3.05;;;38.00;76.70;;;;;;5073872;28;20107;-62
2022/07/18 12:24:30;;;;;;;3.63;3.33;;;38.00;74.70;;;;;;5073872;28;20420;-62
2022/07/18 12:27:31;;;;;;;4.15;3.47;;;38.20;74.10;;;;;;5073803;28;20048;-62
2022/07/18 12:30:18;;;;;;;6.80;3.50;;;38.10;74.50;;;;;;5031484;28;20053;-63
2022/07/18 12:32:52;;;;;;;5.85;3.30;;;38.70;76.40;;;;;;5031711;28;20160;-63
2022/07/18 12:35:22;;;;;;;8.18;3.42;;;38.40;73.60;;;;;;5015110;28;20057;-62
2022/07/18 12:37:58;;;;;;;6.35;2.95;;;38.00;75.40;;;;;;5031578;28;20053;-63
2022/07/18 12:40:38;;;;;;;5.97;3.22;;;38.00;75.10;;;;;;5031315;28;20052;-63
2022/07/18 12:43:10;;;;;;;3.67;3.10;;;37.80;73.90;;;;;;5015303;28;20049;-63
2022/07/18 12:45:37;;;;;;;5.40;3.10;;;38.00;74.90;;;;;;5031627;28;20045;-63
2022/07/18 12:48:03;;;;;;;5.07;3.22;;;37.90;75.00;;;;;;5031541;28;20038;-61
2022/07/18 12:50:29;;;;;;;4.80;3.00;;;37.80;76.70;;;;;;5031523;28;20451;-63
2022/07/18 12:52:56;;;;;;;3.83;3.22;;;37.10;75.40;;;;;;5031607;28;20276;-63